sensor_id;sensor_type;location;lat;lon;timestamp;pressure;altitude;pressure_sealevel;temperature;humidity
53689;BME280;39583;54.682;30.662;2023-05-01T07:42:53;99653.09;;;8.22;48.08
53689;BME280;39583;54.682;30.662;2023-05-01T07:45:20;99640.66;;;8.55;47.96
53689;BME280;39583;54.682;30.662;2023-05-01T07:47:45;99645.25;;;8.75;47.89
53689;BME280;39583;54.682;30.662;2023-05-01T07:50:12;99655.41;;;8.86;47.63
53689;BME280;39583;54.682;30.662;2023-05-01T07:52:38;99652.53;;;9.01;47.65
53689;BME280;39583;54.682;30.662;2023-05-01T07:55:04;99648.59;;;9.10;47.64
53689;BME280;39583;54.682;30.662;2023-05-01T07:57:30;99661.63;;;9.13;46.58
53689;BME280;39583;54.682;30.662;2023-05-01T07:59:58;99657.06;;;9.07;45.54
53689;BME280;39583;54.682;30.662;2023-05-01T08:02:24;99659.75;;;9.07;45.60
53689;BME280;39583;54.682;30.662;2023-05-01T08:04:50;99665.75;;;9.15;45.42
53689;BME280;39583;54.682;30.662;2023-05-01T08:07:16;99667.41;;;9.16;45.06
53689;BME280;39583;54.682;30.662;2023-05-01T08:09:42;99662.66;;;9.12;44.60
53689;BME280;39583;54.682;30.662;2023-05-01T08:12:08;99669.91;;;9.11;44.31
53689;BME280;39583;54.682;30.662;2023-05-01T08:14:34;99671.09;;;9.09;43.42
53689;BME280;39583;54.682;30.662;2023-05-01T08:17:00;99678.56;;;9.07;43.65
53689;BME280;39583;54.682;30.662;2023-05-01T08:19:25;99669.69;;;9.13;43.95
53689;BME280;39583;54.682;30.662;2023-05-01T08:21:52;99666.81;;;9.28;43.18
53689;BME280;39583;54.682;30.662;2023-05-01T08:24:18;99675.25;;;9.31;43.58
53689;BME280;39583;54.682;30.662;2023-05-01T08:26:45;99671.34;;;9.54;43.92
53689;BME280;39583;54.682;30.662;2023-05-01T08:29:11;99654.38;;;9.53;42.16
53689;BME280;39583;54.682;30.662;2023-05-01T08:31:37;99686.84;;;9.45;42.01
53689;BME280;39583;54.682;30.662;2023-05-01T08:34:04;99693.06;;;9.39;41.52
53689;BME280;39583;54.682;30.662;2023-05-01T08:36:32;99662.22;;;9.22;41.64
53689;BME280;39583;54.682;30.662;2023-05-01T08:38:59;99697.41;;;9.40;40.78
53689;BME280;39583;54.682;30.662;2023-05-01T08:41:26;99714.75;;;9.37;40.19
53689;BME280;39583;54.682;30.662;2023-05-01T08:43:52;99702.78;;;9.40;39.77
53689;BME280;39583;54.682;30.662;2023-05-01T08:49:03;99709.56;;;9.49;39.08
53689;BME280;39583;54.682;30.662;2023-05-01T08:51:31;99700.91;;;9.54;39.33
53689;BME280;39583;54.682;30.662;2023-05-01T08:54:00;99707.91;;;9.61;39.53
53689;BME280;39583;54.682;30.662;2023-05-01T08:56:29;99689.53;;;9.65;39.92
53689;BME280;39583;54.682;30.662;2023-05-01T08:58:57;99692.41;;;9.63;40.25
53689;BME280;39583;54.682;30.662;2023-05-01T09:01:26;99703.16;;;9.83;40.24
53689;BME280;39583;54.682;30.662;2023-05-01T09:03:53;99715.13;;;9.87;40.35
53689;BME280;39583;54.682;30.662;2023-05-01T09:06:22;99708.56;;;9.77;38.98
53689;BME280;39583;54.682;30.662;2023-05-01T09:08:48;99695.28;;;9.75;39.49
53689;BME280;39583;54.682;30.662;2023-05-01T09:11:13;99698.81;;;9.82;39.65
53689;BME280;39583;54.682;30.662;2023-05-01T09:13:39;99703.13;;;9.96;39.55
53689;BME280;39583;54.682;30.662;2023-05-01T09:16:05;99719.03;;;10.11;38.25
53689;BME280;39583;54.682;30.662;2023-05-01T09:18:33;99726.09;;;10.05;37.71
53689;BME280;39583;54.682;30.662;2023-05-01T09:20:59;99713.91;;;9.96;37.87
53689;BME280;39583;54.682;30.662;2023-05-01T09:23:25;99722.97;;;10.09;37.77
53689;BME280;39583;54.682;30.662;2023-05-01T09:25:51;99738.50;;;10.00;37.04
53689;BME280;39583;54.682;30.662;2023-05-01T09:28:17;99735.19;;;10.11;37.27
53689;BME280;39583;54.682;30.662;2023-05-01T09:30:43;99717.16;;;10.12;37.37
53689;BME280;39583;54.682;30.662;2023-05-01T09:33:13;99700.44;;;9.96;37.36
53689;BME280;39583;54.682;30.662;2023-05-01T09:38:19;99700.19;;;10.24;37.69
53689;BME280;39583;54.682;30.662;2023-05-01T09:40:45;99695.31;;;10.53;37.19
53689;BME280;39583;54.682;30.662;2023-05-01T09:43:11;99714.31;;;10.64;36.90
53689;BME280;39583;54.682;30.662;2023-05-01T09:45:37;99719.28;;;10.68;36.68
53689;BME280;39583;54.682;30.662;2023-05-01T09:48:08;99726.06;;;10.83;36.63
53689;BME280;39583;54.682;30.662;2023-05-01T09:50:35;99741.81;;;10.80;36.04
53689;BME280;39583;54.682;30.662;2023-05-01T09:53:03;99734.53;;;10.87;35.84
53689;BME280;39583;54.682;30.662;2023-05-01T09:55:29;99724.56;;;10.94;35.97
53689;BME280;39583;54.682;30.662;2023-05-01T09:57:56;99699.47;;;10.93;35.73
53689;BME280;39583;54.682;30.662;2023-05-01T10:00:23;99737.75;;;11.02;34.51
53689;BME280;39583;54.682;30.662;2023-05-01T10:02:50;99735.34;;;10.94;33.51
53689;BME280;39583;54.682;30.662;2023-05-01T10:05:17;99732.66;;;10.94;34.60
53689;BME280;39583;54.682;30.662;2023-05-01T10:08:02;99723.03;;;11.05;34.25
53689;BME280;39583;54.682;30.662;2023-05-01T10:10:29;99716.41;;;11.07;34.75
53689;BME280;39583;54.682;30.662;2023-05-01T10:13:14;99728.41;;;11.11;34.81
53689;BME280;39583;54.682;30.662;2023-05-01T10:15:40;99729.16;;;11.18;34.30
53689;BME280;39583;54.682;30.662;2023-05-01T10:18:07;99714.63;;;11.19;34.42
53689;BME280;39583;54.682;30.662;2023-05-01T10:20:34;99734.06;;;11.35;34.30
53689;BME280;39583;54.682;30.662;2023-05-01T10:23:01;99741.22;;;11.16;34.19
53689;BME280;39583;54.682;30.662;2023-05-01T10:25:28;99715.13;;;11.10;34.67
53689;BME280;39583;54.682;30.662;2023-05-01T10:27:55;99722.53;;;11.21;34.77
53689;BME280;39583;54.682;30.662;2023-05-01T10:30:22;99722.84;;;11.31;34.42
53689;BME280;39583;54.682;30.662;2023-05-01T10:32:48;99734.59;;;11.43;34.20
53689;BME280;39583;54.682;30.662;2023-05-01T10:35:22;99738.34;;;11.42;33.84
53689;BME280;39583;54.682;30.662;2023-05-01T10:38:03;99720.38;;;11.30;33.98
53689;BME280;39583;54.682;30.662;2023-05-01T10:40:42;99721.50;;;11.22;34.51
53689;BME280;39583;54.682;30.662;2023-05-01T10:43:27;99728.09;;;11.26;33.82
53689;BME280;39583;54.682;30.662;2023-05-01T10:53:38;99723.88;;;11.37;32.63
53689;BME280;39583;54.682;30.662;2023-05-01T10:56:04;99742.03;;;11.48;32.50
53689;BME280;39583;54.682;30.662;2023-05-01T11:01:28;99731.63;;;11.51;32.80
53689;BME280;39583;54.682;30.662;2023-05-01T11:03:56;99734.34;;;11.51;33.02
53689;BME280;39583;54.682;30.662;2023-05-01T11:06:22;99723.88;;;11.62;32.75
53689;BME280;39583;54.682;30.662;2023-05-01T11:08:48;99725.88;;;11.73;31.91
53689;BME280;39583;54.682;30.662;2023-05-01T11:21:42;99754.59;;;11.61;31.98
53689;BME280;39583;54.682;30.662;2023-05-01T11:24:09;99744.28;;;11.51;32.32
53689;BME280;39583;54.682;30.662;2023-05-01T11:26:37;99741.28;;;11.66;32.25
53689;BME280;39583;54.682;30.662;2023-05-01T11:29:05;99755.84;;;11.90;32.58
53689;BME280;39583;54.682;30.662;2023-05-01T11:31:31;99735.78;;;12.04;32.08
53689;BME280;39583;54.682;30.662;2023-05-01T11:33:59;99743.41;;;11.89;31.90
53689;BME280;39583;54.682;30.662;2023-05-01T11:36:26;99741.13;;;11.61;31.94
53689;BME280;39583;54.682;30.662;2023-05-01T11:38:55;99741.03;;;11.67;31.43
53689;BME280;39583;54.682;30.662;2023-05-01T11:41:22;99746.63;;;11.72;31.77
53689;BME280;39583;54.682;30.662;2023-05-01T11:43:56;99735.88;;;11.66;31.65
53689;BME280;39583;54.682;30.662;2023-05-01T11:46:27;99743.03;;;11.85;31.41
53689;BME280;39583;54.682;30.662;2023-05-01T11:48:57;99739.84;;;12.13;31.20
53689;BME280;39583;54.682;30.662;2023-05-01T11:51:24;99740.75;;;12.25;31.07
53689;BME280;39583;54.682;30.662;2023-05-01T11:56:23;99741.72;;;12.31;31.40
53689;BME280;39583;54.682;30.662;2023-05-01T11:58:50;99729.66;;;12.52;31.56
53689;BME280;39583;54.682;30.662;2023-05-01T12:01:16;99733.47;;;12.81;31.55
53689;BME280;39583;54.682;30.662;2023-05-01T12:03:43;99736.50;;;13.03;31.25
53689;BME280;39583;54.682;30.662;2023-05-01T12:06:10;99736.09;;;12.99;30.54
53689;BME280;39583;54.682;30.662;2023-05-01T12:08:43;99734.41;;;12.86;31.01
53689;BME280;39583;54.682;30.662;2023-05-01T12:11:12;99741.09;;;12.84;31.27
53689;BME280;39583;54.682;30.662;2023-05-01T12:13:39;99736.63;;;13.08;31.34
53689;BME280;39583;54.682;30.662;2023-05-01T12:16:05;99740.75;;;13.28;31.35
53689;BME280;39583;54.682;30.662;2023-05-01T12:18:31;99728.78;;;13.18;30.47
53689;BME280;39583;54.682;30.662;2023-05-01T12:20:57;99718.38;;;13.21;30.79
53689;BME280;39583;54.682;30.662;2023-05-01T12:23:31;99725.78;;;13.26;29.70
53689;BME280;39583;54.682;30.662;2023-05-01T12:25:59;99726.53;;;13.15;29.59
53689;BME280;39583;54.682;30.662;2023-05-01T12:28:27;99739.69;;;13.11;29.84
53689;BME280;39583;54.682;30.662;2023-05-01T12:31:00;99738.50;;;13.07;29.83
53689;BME280;39583;54.682;30.662;2023-05-01T12:33:26;99732.41;;;13.12;30.07
53689;BME280;39583;54.682;30.662;2023-05-01T12:35:52;99743.38;;;13.17;29.17
53689;BME280;39583;54.682;30.662;2023-05-01T12:38:20;99732.13;;;13.02;29.21
53689;BME280;39583;54.682;30.662;2023-05-01T12:43:19;99741.97;;;12.96;29.06
53689;BME280;39583;54.682;30.662;2023-05-01T12:45:51;99741.19;;;12.77;29.27
53689;BME280;39583;54.682;30.662;2023-05-01T12:48:17;99745.09;;;12.81;29.15
53689;BME280;39583;54.682;30.662;2023-05-01T12:50:44;99754.59;;;12.84;29.10
53689;BME280;39583;54.682;30.662;2023-05-01T12:53:11;99739.91;;;12.61;29.09
53689;BME280;39583;54.682;30.662;2023-05-01T12:55:48;99747.13;;;12.49;29.51
53689;BME280;39583;54.682;30.662;2023-05-01T12:58:14;99750.50;;;12.45;29.68
53689;BME280;39583;54.682;30.662;2023-05-01T13:00:46;99761.03;;;12.53;29.79
53689;BME280;39583;54.682;30.662;2023-05-01T13:03:13;99758.75;;;12.68;29.76
53689;BME280;39583;54.682;30.662;2023-05-01T13:05:51;99750.28;;;12.64;29.82
53689;BME280;39583;54.682;30.662;2023-05-01T13:08:31;99757.25;;;12.72;29.69
53689;BME280;39583;54.682;30.662;2023-05-01T13:11:00;99757.47;;;12.70;29.68
53689;BME280;39583;54.682;30.662;2023-05-01T13:13:28;99755.91;;;12.81;29.63
53689;BME280;39583;54.682;30.662;2023-05-01T13:16:05;99760.09;;;13.25;29.23
53689;BME280;39583;54.682;30.662;2023-05-01T13:18:32;99747.28;;;13.63;29.09
53689;BME280;39583;54.682;30.662;2023-05-01T13:21:09;99745.09;;;14.06;28.56
53689;BME280;39583;54.682;30.662;2023-05-01T13:23:39;99759.44;;;13.95;28.62
53689;BME280;39583;54.682;30.662;2023-05-01T13:26:06;99759.19;;;13.73;28.74
53689;BME280;39583;54.682;30.662;2023-05-01T13:28:34;99748.22;;;13.56;28.85
53689;BME280;39583;54.682;30.662;2023-05-01T13:31:00;99756.00;;;13.88;28.76
53689;BME280;39583;54.682;30.662;2023-05-01T13:33:29;99754.47;;;14.15;28.30
53689;BME280;39583;54.682;30.662;2023-05-01T13:35:55;99746.69;;;14.31;27.87
53689;BME280;39583;54.682;30.662;2023-05-01T13:38:21;99757.91;;;14.34;27.99
53689;BME280;39583;54.682;30.662;2023-05-01T13:40:49;99760.84;;;14.21;27.21
53689;BME280;39583;54.682;30.662;2023-05-01T13:43:15;99760.97;;;14.03;27.47
53689;BME280;39583;54.682;30.662;2023-05-01T13:45:42;99787.19;;;13.91;27.68
53689;BME280;39583;54.682;30.662;2023-05-01T13:48:08;99767.59;;;13.53;27.47
53689;BME280;39583;54.682;30.662;2023-05-01T13:50:37;99787.69;;;13.16;27.95
53689;BME280;39583;54.682;30.662;2023-05-01T13:53:05;99785.38;;;12.83;28.29
53689;BME280;39583;54.682;30.662;2023-05-01T13:55:31;99784.66;;;12.57;28.60
53689;BME280;39583;54.682;30.662;2023-05-01T13:57:59;99780.81;;;12.83;28.44
53689;BME280;39583;54.682;30.662;2023-05-01T14:00:25;99752.56;;;12.97;28.19
53689;BME280;39583;54.682;30.662;2023-05-01T14:02:51;99791.41;;;13.33;27.69
53689;BME280;39583;54.682;30.662;2023-05-01T14:05:23;99786.91;;;13.57;27.27
53689;BME280;39583;54.682;30.662;2023-05-01T14:07:56;99778.69;;;13.64;27.37
53689;BME280;39583;54.682;30.662;2023-05-01T14:10:25;99780.69;;;13.80;27.21
53689;BME280;39583;54.682;30.662;2023-05-01T14:12:56;99773.91;;;13.89;26.91
53689;BME280;39583;54.682;30.662;2023-05-01T14:15:23;99778.50;;;14.00;26.86
53689;BME280;39583;54.682;30.662;2023-05-01T14:17:49;99778.63;;;14.05;27.02
53689;BME280;39583;54.682;30.662;2023-05-01T14:20:15;99778.75;;;13.99;26.71
53689;BME280;39583;54.682;30.662;2023-05-01T14:22:46;99753.03;;;13.66;26.44
53689;BME280;39583;54.682;30.662;2023-05-01T14:27:54;99778.13;;;13.73;26.59
53689;BME280;39583;54.682;30.662;2023-05-01T14:30:30;99789.75;;;13.62;26.89
53689;BME280;39583;54.682;30.662;2023-05-01T14:33:02;99765.31;;;13.39;26.93
53689;BME280;39583;54.682;30.662;2023-05-01T14:35:28;99788.44;;;13.65;27.03
53689;BME280;39583;54.682;30.662;2023-05-01T14:37:54;99788.00;;;13.68;27.80
53689;BME280;39583;54.682;30.662;2023-05-01T14:40:26;99778.59;;;13.70;27.67
53689;BME280;39583;54.682;30.662;2023-05-01T14:42:53;99780.47;;;13.70;27.49
53689;BME280;39583;54.682;30.662;2023-05-01T14:45:19;99790.72;;;13.68;27.53
53689;BME280;39583;54.682;30.662;2023-05-01T14:47:47;99784.69;;;13.66;27.29
53689;BME280;39583;54.682;30.662;2023-05-01T14:50:23;99785.97;;;13.63;27.17
53689;BME280;39583;54.682;30.662;2023-05-01T14:52:53;99792.31;;;13.57;27.40
53689;BME280;39583;54.682;30.662;2023-05-01T14:55:26;99788.81;;;13.68;27.70
53689;BME280;39583;54.682;30.662;2023-05-01T14:57:56;99795.97;;;13.63;27.15
53689;BME280;39583;54.682;30.662;2023-05-01T15:00:23;99794.19;;;13.26;27.14
53689;BME280;39583;54.682;30.662;2023-05-01T15:02:49;99799.56;;;12.96;27.59
53689;BME280;39583;54.682;30.662;2023-05-01T15:05:16;99804.69;;;12.68;28.07
53689;BME280;39583;54.682;30.662;2023-05-01T15:07:42;99809.91;;;12.45;28.71
53689;BME280;39583;54.682;30.662;2023-05-01T15:10:08;99811.59;;;12.21;28.29
53689;BME280;39583;54.682;30.662;2023-05-01T15:12:34;99813.44;;;12.02;28.62
53689;BME280;39583;54.682;30.662;2023-05-01T15:15:00;99817.28;;;11.88;28.98
53689;BME280;39583;54.682;30.662;2023-05-01T15:17:27;99813.63;;;11.75;28.90
53689;BME280;39583;54.682;30.662;2023-05-01T15:19:54;99807.88;;;11.65;29.06
53689;BME280;39583;54.682;30.662;2023-05-01T15:22:22;99816.41;;;11.62;29.31
53689;BME280;39583;54.682;30.662;2023-05-01T15:24:48;99818.19;;;11.75;29.16
53689;BME280;39583;54.682;30.662;2023-05-01T15:27:15;99812.56;;;11.76;29.27
53689;BME280;39583;54.682;30.662;2023-05-01T15:29:44;99811.91;;;11.88;29.45
53689;BME280;39583;54.682;30.662;2023-05-01T15:32:09;99816.25;;;12.14;29.23
53689;BME280;39583;54.682;30.662;2023-05-01T15:34:35;99815.19;;;12.39;28.97
53689;BME280;39583;54.682;30.662;2023-05-01T15:37:01;99815.78;;;12.60;29.02
53689;BME280;39583;54.682;30.662;2023-05-01T15:39:28;99821.94;;;12.85;28.92
53689;BME280;39583;54.682;30.662;2023-05-01T15:41:55;99818.84;;;13.00;28.92
53689;BME280;39583;54.682;30.662;2023-05-01T15:44:21;99807.81;;;13.20;28.51
53689;BME280;39583;54.682;30.662;2023-05-01T15:46:47;99826.91;;;13.67;28.05
53689;BME280;39583;54.682;30.662;2023-05-01T15:49:13;99819.00;;;14.30;27.13
53689;BME280;39583;54.682;30.662;2023-05-01T15:51:39;99808.50;;;15.21;26.17
53689;BME280;39583;54.682;30.662;2023-05-01T15:54:05;99837.19;;;16.02;25.11
53689;BME280;39583;54.682;30.662;2023-05-01T15:56:36;99830.25;;;16.45;24.65
53689;BME280;39583;54.682;30.662;2023-05-01T15:59:03;99828.75;;;16.71;24.17
53689;BME280;39583;54.682;30.662;2023-05-01T16:01:31;99839.94;;;17.18;23.87
53689;BME280;39583;54.682;30.662;2023-05-01T16:03:57;99834.31;;;17.25;22.65
53689;BME280;39583;54.682;30.662;2023-05-01T16:06:23;99837.84;;;17.03;23.47
53689;BME280;39583;54.682;30.662;2023-05-01T16:08:49;99839.19;;;17.23;23.63
53689;BME280;39583;54.682;30.662;2023-05-01T16:11:15;99844.69;;;17.28;23.20
53689;BME280;39583;54.682;30.662;2023-05-01T16:13:41;99845.19;;;17.03;23.57
53689;BME280;39583;54.682;30.662;2023-05-01T16:16:11;99835.53;;;17.12;23.23
53689;BME280;39583;54.682;30.662;2023-05-01T16:18:40;99850.25;;;17.38;23.52
53689;BME280;39583;54.682;30.662;2023-05-01T16:21:10;99851.38;;;17.42;23.41
53689;BME280;39583;54.682;30.662;2023-05-01T16:23:37;99852.31;;;17.53;23.61
53689;BME280;39583;54.682;30.662;2023-05-01T16:26:04;99854.63;;;17.88;23.69
53689;BME280;39583;54.682;30.662;2023-05-01T16:28:34;99863.13;;;17.96;23.67
53689;BME280;39583;54.682;30.662;2023-05-01T16:31:01;99859.19;;;17.82;23.73
53689;BME280;39583;54.682;30.662;2023-05-01T16:33:27;99854.03;;;17.59;23.52
53689;BME280;39583;54.682;30.662;2023-05-01T16:35:53;99863.06;;;17.64;23.73
53689;BME280;39583;54.682;30.662;2023-05-01T16:38:19;99846.69;;;17.59;23.87
53689;BME280;39583;54.682;30.662;2023-05-01T16:40:46;99865.56;;;17.44;23.98
53689;BME280;39583;54.682;30.662;2023-05-01T16:43:13;99867.25;;;16.29;25.22
53689;BME280;39583;54.682;30.662;2023-05-01T16:45:39;99871.81;;;14.98;26.55
53689;BME280;39583;54.682;30.662;2023-05-01T16:48:05;99885.03;;;13.94;27.42
53689;BME280;39583;54.682;30.662;2023-05-01T16:50:31;99886.25;;;13.20;28.49
53689;BME280;39583;54.682;30.662;2023-05-01T16:52:58;99882.25;;;12.61;29.24
53689;BME280;39583;54.682;30.662;2023-05-01T16:55:26;99888.25;;;12.20;29.50
53689;BME280;39583;54.682;30.662;2023-05-01T16:57:58;99880.00;;;11.83;29.95
53689;BME280;39583;54.682;30.662;2023-05-01T17:00:37;99883.47;;;11.52;30.28
53689;BME280;39583;54.682;30.662;2023-05-01T17:03:08;99885.69;;;11.23;30.58
53689;BME280;39583;54.682;30.662;2023-05-01T17:05:37;99881.78;;;11.06;30.85
53689;BME280;39583;54.682;30.662;2023-05-01T17:08:05;99884.78;;;10.85;31.05
53689;BME280;39583;54.682;30.662;2023-05-01T17:10:35;99888.31;;;10.66;31.50
53689;BME280;39583;54.682;30.662;2023-05-01T17:13:05;99895.00;;;10.43;32.07
53689;BME280;39583;54.682;30.662;2023-05-01T17:15:32;99896.00;;;10.16;32.75
53689;BME280;39583;54.682;30.662;2023-05-01T17:17:58;99906.94;;;9.88;33.21
53689;BME280;39583;54.682;30.662;2023-05-01T17:20:27;99902.97;;;9.64;34.03
53689;BME280;39583;54.682;30.662;2023-05-01T17:22:56;99898.31;;;9.31;35.16
53689;BME280;39583;54.682;30.662;2023-05-01T17:25:28;99903.75;;;9.03;36.47
53689;BME280;39583;54.682;30.662;2023-05-01T17:27:54;99905.63;;;8.68;37.62
53689;BME280;39583;54.682;30.662;2023-05-01T17:30:21;99907.09;;;8.43;38.50
53689;BME280;39583;54.682;30.662;2023-05-01T17:32:50;99913.22;;;8.15;38.85
53689;BME280;39583;54.682;30.662;2023-05-01T17:35:19;99919.56;;;7.86;39.31
53689;BME280;39583;54.682;30.662;2023-05-01T17:37:51;99909.78;;;7.57;40.24
53689;BME280;39583;54.682;30.662;2023-05-01T17:40:17;99924.78;;;7.37;41.23
53689;BME280;39583;54.682;30.662;2023-05-01T17:42:43;99934.25;;;7.18;41.45
53689;BME280;39583;54.682;30.662;2023-05-01T17:45:27;99934.25;;;7.03;41.36
53689;BME280;39583;54.682;30.662;2023-05-01T17:48:02;99918.75;;;6.84;41.54
53689;BME280;39583;54.682;30.662;2023-05-01T17:50:49;99933.41;;;6.73;42.08
53689;BME280;39583;54.682;30.662;2023-05-01T17:53:33;99943.81;;;6.54;42.27
53689;BME280;39583;54.682;30.662;2023-05-01T17:56:02;99942.28;;;6.36;42.74
53689;BME280;39583;54.682;30.662;2023-05-01T17:58:32;99949.25;;;6.22;43.57
53689;BME280;39583;54.682;30.662;2023-05-01T18:01:00;99947.56;;;6.07;44.36
53689;BME280;39583;54.682;30.662;2023-05-01T18:03:28;99949.28;;;6.00;44.33
53689;BME280;39583;54.682;30.662;2023-05-01T18:06:03;99953.34;;;5.87;44.89
53689;BME280;39583;54.682;30.662;2023-05-01T18:08:30;99960.28;;;5.74;45.46
53689;BME280;39583;54.682;30.662;2023-05-01T18:10:59;99956.88;;;5.57;45.84
53689;BME280;39583;54.682;30.662;2023-05-01T18:13:29;99961.94;;;5.44;46.70
53689;BME280;39583;54.682;30.662;2023-05-01T18:15:59;99954.84;;;5.28;47.43
53689;BME280;39583;54.682;30.662;2023-05-01T18:18:33;99948.94;;;5.10;47.80
53689;BME280;39583;54.682;30.662;2023-05-01T18:21:03;99962.78;;;5.05;48.02
53689;BME280;39583;54.682;30.662;2023-05-01T18:23:35;99932.47;;;4.82;48.30
53689;BME280;39583;54.682;30.662;2023-05-01T18:26:04;99953.63;;;4.91;48.16
53689;BME280;39583;54.682;30.662;2023-05-01T18:28:30;99958.31;;;4.81;49.07
53689;BME280;39583;54.682;30.662;2023-05-01T18:30:58;99957.88;;;4.69;49.75
53689;BME280;39583;54.682;30.662;2023-05-01T18:33:24;99962.38;;;4.61;49.97
53689;BME280;39583;54.682;30.662;2023-05-01T18:35:50;99964.88;;;4.54;50.02
53689;BME280;39583;54.682;30.662;2023-05-01T18:38:16;99966.56;;;4.47;50.40
53689;BME280;39583;54.682;30.662;2023-05-01T18:40:42;99964.72;;;4.39;50.92
53689;BME280;39583;54.682;30.662;2023-05-01T18:43:08;99968.91;;;4.34;51.21
53689;BME280;39583;54.682;30.662;2023-05-01T18:45:35;99968.72;;;4.27;51.57
53689;BME280;39583;54.682;30.662;2023-05-01T18:48:04;99973.91;;;4.21;52.05
53689;BME280;39583;54.682;30.662;2023-05-01T18:50:30;99974.91;;;4.11;51.98
53689;BME280;39583;54.682;30.662;2023-05-01T18:52:56;99972.88;;;3.97;52.33
53689;BME280;39583;54.682;30.662;2023-05-01T18:55:22;99981.19;;;3.86;52.50
53689;BME280;39583;54.682;30.662;2023-05-01T18:57:50;99979.84;;;3.74;53.10
53689;BME280;39583;54.682;30.662;2023-05-01T19:00:16;99977.00;;;3.67;53.47
53689;BME280;39583;54.682;30.662;2023-05-01T19:02:43;99974.81;;;3.63;53.87
53689;BME280;39583;54.682;30.662;2023-05-01T19:05:16;99983.97;;;3.60;53.62
53689;BME280;39583;54.682;30.662;2023-05-01T19:07:41;99986.78;;;3.59;53.78
53689;BME280;39583;54.682;30.662;2023-05-01T19:10:08;99984.47;;;3.55;54.10
53689;BME280;39583;54.682;30.662;2023-05-01T19:12:34;99982.28;;;3.51;54.52
